sensor_id;sensor_type;location;lat;lon;timestamp;P1;durP1;ratioP1;P2;durP2;ratioP2
70487;SDS011;57976;48.174;16.370;2022-11-04T00:00:12;26.00;;;13.50;;
70487;SDS011;57976;48.174;16.370;2022-11-04T00:02:17;25.30;;;13.30;;
70487;SDS011;57976;48.174;16.370;2022-11-04T00:04:23;25.40;;;13.60;;
70487;SDS011;57976;48.174;16.370;2022-11-04T00:06:29;28.20;;;15.20;;
70487;SDS011;57976;48.174;16.370;2022-11-04T00:08:33;25.40;;;13.90;;
70487;SDS011;57976;48.174;16.370;2022-11-04T00:10:38;27.80;;;15.30;;
70487;SDS011;57976;48.174;16.370;2022-11-04T00:12:43;26.30;;;14.00;;
70487;SDS011;57976;48.174;16.370;2022-11-04T00:14:48;25.60;;;13.60;;
70487;SDS011;57976;48.174;16.370;2022-11-04T00:16:52;24.90;;;14.10;;
70487;SDS011;57976;48.174;16.370;2022-11-04T00:18:58;26.40;;;14.80;;
70487;SDS011;57976;48.174;16.370;2022-11-04T00:21:03;25.60;;;14.50;;
70487;SDS011;57976;48.174;16.370;2022-11-04T00:23:08;27.50;;;15.10;;
70487;SDS011;57976;48.174;16.370;2022-11-04T00:25:13;28.80;;;15.20;;
70487;SDS011;57976;48.174;16.370;2022-11-04T00:27:18;26.90;;;14.80;;
70487;SDS011;57976;48.174;16.370;2022-11-04T00:29:23;24.40;;;13.50;;
70487;SDS011;57976;48.174;16.370;2022-11-04T00:31:28;29.80;;;15.60;;
70487;SDS011;57976;48.174;16.370;2022-11-04T00:33:33;28.30;;;15.40;;
70487;SDS011;57976;48.174;16.370;2022-11-04T00:35:37;29.10;;;15.60;;
70487;SDS011;57976;48.174;16.370;2022-11-04T00:37:42;25.50;;;14.80;;
70487;SDS011;57976;48.174;16.370;2022-11-04T00:39:47;26.90;;;15.30;;
70487;SDS011;57976;48.174;16.370;2022-11-04T00:41:52;29.10;;;15.70;;
70487;SDS011;57976;48.174;16.370;2022-11-04T00:43:57;28.50;;;15.40;;
70487;SDS011;57976;48.174;16.370;2022-11-04T00:46:05;27.90;;;15.50;;
70487;SDS011;57976;48.174;16.370;2022-11-04T00:48:10;32.80;;;16.00;;
70487;SDS011;57976;48.174;16.370;2022-11-04T00:50:15;25.80;;;14.80;;
70487;SDS011;57976;48.174;16.370;2022-11-04T00:52:20;28.70;;;16.00;;
70487;SDS011;57976;48.174;16.370;2022-11-04T00:54:25;29.40;;;15.60;;
70487;SDS011;57976;48.174;16.370;2022-11-04T00:56:29;29.70;;;16.70;;
70487;SDS011;57976;48.174;16.370;2022-11-04T00:58:34;30.40;;;16.00;;
70487;SDS011;57976;48.174;16.370;2022-11-04T01:00:39;29.40;;;16.00;;
70487;SDS011;57976;48.174;16.370;2022-11-04T01:02:44;29.20;;;16.00;;
70487;SDS011;57976;48.174;16.370;2022-11-04T01:04:49;28.20;;;15.80;;
70487;SDS011;57976;48.174;16.370;2022-11-04T01:06:54;28.50;;;16.20;;
70487;SDS011;57976;48.174;16.370;2022-11-04T01:08:59;28.80;;;16.20;;
70487;SDS011;57976;48.174;16.370;2022-11-04T01:11:08;31.50;;;16.00;;
70487;SDS011;57976;48.174;16.370;2022-11-04T01:13:13;29.50;;;16.70;;
70487;SDS011;57976;48.174;16.370;2022-11-04T01:15:18;30.50;;;16.40;;
70487;SDS011;57976;48.174;16.370;2022-11-04T01:17:23;29.80;;;16.80;;
70487;SDS011;57976;48.174;16.370;2022-11-04T01:19:27;30.50;;;17.30;;
70487;SDS011;57976;48.174;16.370;2022-11-04T01:21:32;30.20;;;17.20;;
70487;SDS011;57976;48.174;16.370;2022-11-04T01:23:37;29.30;;;16.30;;
70487;SDS011;57976;48.174;16.370;2022-11-04T01:25:42;31.10;;;14.80;;
70487;SDS011;57976;48.174;16.370;2022-11-04T01:27:47;30.60;;;17.30;;
70487;SDS011;57976;48.174;16.370;2022-11-04T01:29:51;29.00;;;16.90;;
70487;SDS011;57976;48.174;16.370;2022-11-04T01:31:56;27.60;;;16.40;;
70487;SDS011;57976;48.174;16.370;2022-11-04T01:34:01;30.10;;;16.90;;
70487;SDS011;57976;48.174;16.370;2022-11-04T01:36:06;29.90;;;17.20;;
70487;SDS011;57976;48.174;16.370;2022-11-04T01:38:12;30.20;;;16.80;;
70487;SDS011;57976;48.174;16.370;2022-11-04T01:40:17;30.70;;;16.70;;
70487;SDS011;57976;48.174;16.370;2022-11-04T01:42:22;30.70;;;16.70;;
70487;SDS011;57976;48.174;16.370;2022-11-04T01:44:47;30.10;;;16.70;;
70487;SDS011;57976;48.174;16.370;2022-11-04T01:46:53;30.10;;;16.00;;
70487;SDS011;57976;48.174;16.370;2022-11-04T01:49:00;33.40;;;17.00;;
70487;SDS011;57976;48.174;16.370;2022-11-04T01:51:12;29.30;;;15.90;;
70487;SDS011;57976;48.174;16.370;2022-11-04T01:53:21;27.90;;;15.50;;
70487;SDS011;57976;48.174;16.370;2022-11-04T01:55:30;28.90;;;16.50;;
70487;SDS011;57976;48.174;16.370;2022-11-04T01:57:39;29.20;;;16.30;;
70487;SDS011;57976;48.174;16.370;2022-11-04T01:59:49;29.10;;;16.30;;
70487;SDS011;57976;48.174;16.370;2022-11-04T02:01:54;29.80;;;16.90;;
70487;SDS011;57976;48.174;16.370;2022-11-04T02:04:00;29.40;;;16.70;;
70487;SDS011;57976;48.174;16.370;2022-11-04T02:06:05;30.50;;;16.80;;
70487;SDS011;57976;48.174;16.370;2022-11-04T02:08:11;31.80;;;16.60;;
70487;SDS011;57976;48.174;16.370;2022-11-04T02:10:17;28.60;;;16.10;;
70487;SDS011;57976;48.174;16.370;2022-11-04T02:12:25;31.80;;;17.00;;
70487;SDS011;57976;48.174;16.370;2022-11-04T02:14:30;29.60;;;16.00;;
70487;SDS011;57976;48.174;16.370;2022-11-04T02:16:37;29.40;;;16.40;;
70487;SDS011;57976;48.174;16.370;2022-11-04T02:18:49;29.60;;;16.70;;
70487;SDS011;57976;48.174;16.370;2022-11-04T02:21:10;30.50;;;16.60;;
70487;SDS011;57976;48.174;16.370;2022-11-04T02:23:45;30.50;;;16.50;;
70487;SDS011;57976;48.174;16.370;2022-11-04T02:26:18;32.00;;;16.50;;
70487;SDS011;57976;48.174;16.370;2022-11-04T02:31:30;32.70;;;16.20;;
70487;SDS011;57976;48.174;16.370;2022-11-04T02:33:44;29.80;;;16.40;;
70487;SDS011;57976;48.174;16.370;2022-11-04T02:35:58;29.00;;;16.10;;
70487;SDS011;57976;48.174;16.370;2022-11-04T02:38:09;30.00;;;16.10;;
70487;SDS011;57976;48.174;16.370;2022-11-04T02:40:20;31.60;;;16.60;;
70487;SDS011;57976;48.174;16.370;2022-11-04T02:42:34;29.50;;;16.40;;
70487;SDS011;57976;48.174;16.370;2022-11-04T02:44:44;30.50;;;17.20;;
70487;SDS011;57976;48.174;16.370;2022-11-04T02:46:59;33.60;;;17.80;;
70487;SDS011;57976;48.174;16.370;2022-11-04T02:49:06;29.30;;;16.90;;
70487;SDS011;57976;48.174;16.370;2022-11-04T02:51:18;31.70;;;17.20;;
70487;SDS011;57976;48.174;16.370;2022-11-04T02:53:28;32.00;;;17.00;;
70487;SDS011;57976;48.174;16.370;2022-11-04T02:55:39;32.40;;;17.40;;
70487;SDS011;57976;48.174;16.370;2022-11-04T02:57:47;34.50;;;18.20;;
70487;SDS011;57976;48.174;16.370;2022-11-04T02:59:58;30.30;;;17.00;;
70487;SDS011;57976;48.174;16.370;2022-11-04T03:02:06;32.20;;;17.80;;
70487;SDS011;57976;48.174;16.370;2022-11-04T03:04:14;33.60;;;17.70;;
70487;SDS011;57976;48.174;16.370;2022-11-04T03:06:23;34.60;;;18.50;;
70487;SDS011;57976;48.174;16.370;2022-11-04T03:08:30;33.20;;;18.10;;
70487;SDS011;57976;48.174;16.370;2022-11-04T03:10:38;32.80;;;17.80;;
70487;SDS011;57976;48.174;16.370;2022-11-04T03:12:46;32.20;;;18.20;;
70487;SDS011;57976;48.174;16.370;2022-11-04T03:14:57;33.20;;;18.30;;
70487;SDS011;57976;48.174;16.370;2022-11-04T03:17:06;31.00;;;17.80;;
70487;SDS011;57976;48.174;16.370;2022-11-04T03:19:18;33.60;;;17.80;;
70487;SDS011;57976;48.174;16.370;2022-11-04T03:21:33;31.70;;;17.70;;
70487;SDS011;57976;48.174;16.370;2022-11-04T03:23:41;30.30;;;17.30;;
70487;SDS011;57976;48.174;16.370;2022-11-04T03:25:47;31.90;;;17.60;;
70487;SDS011;57976;48.174;16.370;2022-11-04T03:27:56;30.20;;;17.20;;
70487;SDS011;57976;48.174;16.370;2022-11-04T03:30:07;31.10;;;17.10;;
70487;SDS011;57976;48.174;16.370;2022-11-04T03:32:17;33.60;;;17.80;;
70487;SDS011;57976;48.174;16.370;2022-11-04T03:34:30;32.20;;;17.20;;
70487;SDS011;57976;48.174;16.370;2022-11-04T03:36:36;32.10;;;17.50;;
70487;SDS011;57976;48.174;16.370;2022-11-04T03:38:40;33.40;;;18.30;;
70487;SDS011;57976;48.174;16.370;2022-11-04T03:40:46;32.90;;;18.20;;
70487;SDS011;57976;48.174;16.370;2022-11-04T03:42:52;30.30;;;17.30;;
70487;SDS011;57976;48.174;16.370;2022-11-04T03:45:02;33.70;;;18.30;;
70487;SDS011;57976;48.174;16.370;2022-11-04T03:47:07;33.90;;;17.80;;
70487;SDS011;57976;48.174;16.370;2022-11-04T03:49:12;31.00;;;16.40;;
70487;SDS011;57976;48.174;16.370;2022-11-04T03:51:18;32.40;;;16.60;;
70487;SDS011;57976;48.174;16.370;2022-11-04T03:53:23;35.00;;;18.60;;
70487;SDS011;57976;48.174;16.370;2022-11-04T03:55:33;33.70;;;17.50;;
70487;SDS011;57976;48.174;16.370;2022-11-04T03:57:47;33.80;;;17.30;;
70487;SDS011;57976;48.174;16.370;2022-11-04T04:00:02;32.10;;;17.70;;
70487;SDS011;57976;48.174;16.370;2022-11-04T04:02:13;33.90;;;17.30;;
70487;SDS011;57976;48.174;16.370;2022-11-04T04:04:22;32.20;;;17.40;;
70487;SDS011;57976;48.174;16.370;2022-11-04T04:06:32;33.40;;;18.10;;
70487;SDS011;57976;48.174;16.370;2022-11-04T04:08:39;34.80;;;17.60;;
70487;SDS011;57976;48.174;16.370;2022-11-04T04:10:51;32.50;;;17.40;;
70487;SDS011;57976;48.174;16.370;2022-11-04T04:13:06;33.90;;;18.10;;
70487;SDS011;57976;48.174;16.370;2022-11-04T04:15:21;35.70;;;18.50;;
70487;SDS011;57976;48.174;16.370;2022-11-04T04:17:31;36.50;;;18.40;;
70487;SDS011;57976;48.174;16.370;2022-11-04T04:19:39;31.70;;;18.00;;
70487;SDS011;57976;48.174;16.370;2022-11-04T04:21:49;33.70;;;18.50;;
70487;SDS011;57976;48.174;16.370;2022-11-04T04:23:58;35.00;;;18.70;;
70487;SDS011;57976;48.174;16.370;2022-11-04T04:26:05;35.10;;;18.50;;
70487;SDS011;57976;48.174;16.370;2022-11-04T04:28:12;38.80;;;19.70;;
70487;SDS011;57976;48.174;16.370;2022-11-04T04:30:19;38.70;;;19.70;;
70487;SDS011;57976;48.174;16.370;2022-11-04T04:32:25;37.90;;;19.30;;
70487;SDS011;57976;48.174;16.370;2022-11-04T04:34:31;38.30;;;19.80;;
70487;SDS011;57976;48.174;16.370;2022-11-04T04:36:38;38.20;;;19.60;;
70487;SDS011;57976;48.174;16.370;2022-11-04T04:38:50;35.50;;;17.90;;
70487;SDS011;57976;48.174;16.370;2022-11-04T04:40:57;38.00;;;19.30;;
70487;SDS011;57976;48.174;16.370;2022-11-04T04:43:07;38.40;;;18.50;;
70487;SDS011;57976;48.174;16.370;2022-11-04T04:45:20;36.70;;;19.40;;
70487;SDS011;57976;48.174;16.370;2022-11-04T04:47:28;36.70;;;18.70;;
70487;SDS011;57976;48.174;16.370;2022-11-04T04:49:49;35.70;;;18.80;;
70487;SDS011;57976;48.174;16.370;2022-11-04T04:51:54;35.10;;;18.10;;
70487;SDS011;57976;48.174;16.370;2022-11-04T04:53:59;35.20;;;18.40;;
70487;SDS011;57976;48.174;16.370;2022-11-04T04:56:04;36.70;;;18.80;;
70487;SDS011;57976;48.174;16.370;2022-11-04T04:58:09;35.70;;;18.10;;
70487;SDS011;57976;48.174;16.370;2022-11-04T05:00:15;36.70;;;17.80;;
70487;SDS011;57976;48.174;16.370;2022-11-04T05:02:21;34.50;;;18.50;;
70487;SDS011;57976;48.174;16.370;2022-11-04T05:04:26;33.60;;;17.90;;
70487;SDS011;57976;48.174;16.370;2022-11-04T05:06:31;35.80;;;18.20;;
70487;SDS011;57976;48.174;16.370;2022-11-04T05:08:36;35.70;;;17.60;;
70487;SDS011;57976;48.174;16.370;2022-11-04T05:10:41;33.80;;;18.10;;
70487;SDS011;57976;48.174;16.370;2022-11-04T05:12:48;36.20;;;18.00;;
70487;SDS011;57976;48.174;16.370;2022-11-04T05:14:53;33.80;;;17.70;;
70487;SDS011;57976;48.174;16.370;2022-11-04T05:16:58;34.40;;;17.20;;
70487;SDS011;57976;48.174;16.370;2022-11-04T05:19:05;33.60;;;17.70;;
70487;SDS011;57976;48.174;16.370;2022-11-04T05:21:12;33.60;;;17.60;;
70487;SDS011;57976;48.174;16.370;2022-11-04T05:23:17;33.30;;;17.10;;
70487;SDS011;57976;48.174;16.370;2022-11-04T05:25:22;33.00;;;18.10;;
70487;SDS011;57976;48.174;16.370;2022-11-04T05:27:27;33.60;;;18.00;;
70487;SDS011;57976;48.174;16.370;2022-11-04T05:29:32;35.00;;;17.70;;
70487;SDS011;57976;48.174;16.370;2022-11-04T05:31:36;32.20;;;18.00;;
70487;SDS011;57976;48.174;16.370;2022-11-04T05:33:41;31.70;;;17.70;;
70487;SDS011;57976;48.174;16.370;2022-11-04T05:35:46;34.40;;;18.20;;
70487;SDS011;57976;48.174;16.370;2022-11-04T05:37:51;38.60;;;18.50;;
70487;SDS011;57976;48.174;16.370;2022-11-04T05:39:56;33.80;;;17.80;;
70487;SDS011;57976;48.174;16.370;2022-11-04T05:42:01;33.30;;;17.40;;
70487;SDS011;57976;48.174;16.370;2022-11-04T05:44:07;34.90;;;17.30;;
70487;SDS011;57976;48.174;16.370;2022-11-04T05:46:14;35.40;;;18.40;;
70487;SDS011;57976;48.174;16.370;2022-11-04T05:48:19;33.80;;;17.70;;
70487;SDS011;57976;48.174;16.370;2022-11-04T05:50:24;31.30;;;17.20;;
70487;SDS011;57976;48.174;16.370;2022-11-04T05:52:29;34.50;;;17.90;;
70487;SDS011;57976;48.174;16.370;2022-11-04T05:54:35;32.20;;;16.90;;
70487;SDS011;57976;48.174;16.370;2022-11-04T05:56:40;32.90;;;18.00;;
70487;SDS011;57976;48.174;16.370;2022-11-04T05:58:45;35.10;;;16.80;;
70487;SDS011;57976;48.174;16.370;2022-11-04T06:00:50;34.50;;;16.50;;
70487;SDS011;57976;48.174;16.370;2022-11-04T06:02:54;31.70;;;16.80;;
70487;SDS011;57976;48.174;16.370;2022-11-04T06:05:00;32.50;;;16.70;;
70487;SDS011;57976;48.174;16.370;2022-11-04T06:07:04;30.10;;;17.00;;
70487;SDS011;57976;48.174;16.370;2022-11-04T06:09:10;30.20;;;16.80;;
70487;SDS011;57976;48.174;16.370;2022-11-04T06:11:15;33.20;;;16.80;;
70487;SDS011;57976;48.174;16.370;2022-11-04T06:13:20;30.70;;;17.10;;
70487;SDS011;57976;48.174;16.370;2022-11-04T06:15:25;32.40;;;16.90;;
70487;SDS011;57976;48.174;16.370;2022-11-04T06:17:30;36.30;;;17.60;;
70487;SDS011;57976;48.174;16.370;2022-11-04T06:19:34;31.40;;;16.60;;
70487;SDS011;57976;48.174;16.370;2022-11-04T06:21:39;33.30;;;16.30;;
70487;SDS011;57976;48.174;16.370;2022-11-04T06:23:44;29.90;;;16.20;;
70487;SDS011;57976;48.174;16.370;2022-11-04T06:25:48;32.20;;;16.40;;
70487;SDS011;57976;48.174;16.370;2022-11-04T06:27:56;32.60;;;17.00;;
70487;SDS011;57976;48.174;16.370;2022-11-04T06:30:00;33.90;;;16.90;;
70487;SDS011;57976;48.174;16.370;2022-11-04T06:32:05;28.50;;;15.80;;
70487;SDS011;57976;48.174;16.370;2022-11-04T06:34:10;29.10;;;15.60;;
70487;SDS011;57976;48.174;16.370;2022-11-04T06:36:15;29.10;;;15.10;;
70487;SDS011;57976;48.174;16.370;2022-11-04T06:38:19;29.80;;;16.40;;
70487;SDS011;57976;48.174;16.370;2022-11-04T06:40:24;32.30;;;16.60;;
70487;SDS011;57976;48.174;16.370;2022-11-04T06:42:29;33.20;;;17.40;;
70487;SDS011;57976;48.174;16.370;2022-11-04T06:44:33;33.30;;;17.50;;
70487;SDS011;57976;48.174;16.370;2022-11-04T06:46:39;31.50;;;17.50;;
70487;SDS011;57976;48.174;16.370;2022-11-04T06:48:44;100.10;;;48.50;;
70487;SDS011;57976;48.174;16.370;2022-11-04T06:50:49;37.80;;;19.20;;
70487;SDS011;57976;48.174;16.370;2022-11-04T06:52:55;40.00;;;20.60;;
70487;SDS011;57976;48.174;16.370;2022-11-04T06:54:59;33.00;;;17.10;;
70487;SDS011;57976;48.174;16.370;2022-11-04T06:57:04;34.90;;;18.40;;
70487;SDS011;57976;48.174;16.370;2022-11-04T06:59:11;33.90;;;18.40;;
70487;SDS011;57976;48.174;16.370;2022-11-04T07:01:19;35.80;;;18.40;;
70487;SDS011;57976;48.174;16.370;2022-11-04T07:03:27;36.50;;;18.10;;
70487;SDS011;57976;48.174;16.370;2022-11-04T07:05:32;36.60;;;18.40;;
70487;SDS011;57976;48.174;16.370;2022-11-04T07:07:37;33.20;;;17.70;;
70487;SDS011;57976;48.174;16.370;2022-11-04T07:09:42;32.90;;;17.40;;
70487;SDS011;57976;48.174;16.370;2022-11-04T07:11:47;34.80;;;18.20;;
70487;SDS011;57976;48.174;16.370;2022-11-04T07:13:51;36.40;;;18.00;;
70487;SDS011;57976;48.174;16.370;2022-11-04T07:15:56;34.70;;;18.20;;
70487;SDS011;57976;48.174;16.370;2022-11-04T07:18:01;35.30;;;18.30;;
70487;SDS011;57976;48.174;16.370;2022-11-04T07:20:06;35.40;;;18.80;;
70487;SDS011;57976;48.174;16.370;2022-11-04T07:22:12;39.70;;;18.90;;
70487;SDS011;57976;48.174;16.370;2022-11-04T07:24:17;35.90;;;19.00;;
70487;SDS011;57976;48.174;16.370;2022-11-04T07:26:22;36.50;;;19.10;;
70487;SDS011;57976;48.174;16.370;2022-11-04T07:28:26;38.40;;;18.90;;
70487;SDS011;57976;48.174;16.370;2022-11-04T07:30:31;35.90;;;18.80;;
70487;SDS011;57976;48.174;16.370;2022-11-04T07:32:36;36.30;;;18.40;;
70487;SDS011;57976;48.174;16.370;2022-11-04T07:34:40;38.80;;;18.70;;
70487;SDS011;57976;48.174;16.370;2022-11-04T07:36:45;37.50;;;18.50;;
70487;SDS011;57976;48.174;16.370;2022-11-04T07:38:50;36.50;;;17.70;;
70487;SDS011;57976;48.174;16.370;2022-11-04T07:40:56;38.70;;;18.80;;
70487;SDS011;57976;48.174;16.370;2022-11-04T07:43:01;37.10;;;18.80;;
70487;SDS011;57976;48.174;16.370;2022-11-04T07:45:12;39.00;;;19.70;;
70487;SDS011;57976;48.174;16.370;2022-11-04T07:47:17;38.60;;;18.80;;
70487;SDS011;57976;48.174;16.370;2022-11-04T07:49:22;36.10;;;18.20;;
70487;SDS011;57976;48.174;16.370;2022-11-04T07:51:27;37.90;;;19.00;;
70487;SDS011;57976;48.174;16.370;2022-11-04T07:53:32;38.20;;;19.10;;
70487;SDS011;57976;48.174;16.370;2022-11-04T07:55:37;40.20;;;18.90;;
70487;SDS011;57976;48.174;16.370;2022-11-04T07:57:45;38.60;;;18.40;;
70487;SDS011;57976;48.174;16.370;2022-11-04T07:59:50;38.70;;;18.50;;
70487;SDS011;57976;48.174;16.370;2022-11-04T08:01:54;37.30;;;19.10;;
70487;SDS011;57976;48.174;16.370;2022-11-04T08:03:59;36.80;;;19.60;;
70487;SDS011;57976;48.174;16.370;2022-11-04T08:06:05;40.90;;;19.60;;
70487;SDS011;57976;48.174;16.370;2022-11-04T08:08:11;39.80;;;19.60;;
70487;SDS011;57976;48.174;16.370;2022-11-04T08:10:16;39.20;;;20.00;;
70487;SDS011;57976;48.174;16.370;2022-11-04T08:12:20;40.10;;;19.70;;
70487;SDS011;57976;48.174;16.370;2022-11-04T08:14:25;39.30;;;19.20;;
70487;SDS011;57976;48.174;16.370;2022-11-04T08:16:30;39.70;;;19.00;;
70487;SDS011;57976;48.174;16.370;2022-11-04T08:18:36;38.70;;;19.00;;
70487;SDS011;57976;48.174;16.370;2022-11-04T08:20:41;44.30;;;21.20;;
70487;SDS011;57976;48.174;16.370;2022-11-04T08:22:50;38.20;;;19.70;;
70487;SDS011;57976;48.174;16.370;2022-11-04T08:24:55;40.50;;;19.70;;
70487;SDS011;57976;48.174;16.370;2022-11-04T08:27:00;36.90;;;18.90;;
70487;SDS011;57976;48.174;16.370;2022-11-04T08:29:07;39.60;;;19.20;;
70487;SDS011;57976;48.174;16.370;2022-11-04T08:31:13;37.90;;;18.80;;
70487;SDS011;57976;48.174;16.370;2022-11-04T08:33:18;36.80;;;18.70;;
70487;SDS011;57976;48.174;16.370;2022-11-04T08:35:23;39.10;;;18.10;;
70487;SDS011;57976;48.174;16.370;2022-11-04T08:37:28;36.80;;;17.60;;
70487;SDS011;57976;48.174;16.370;2022-11-04T08:39:33;42.30;;;19.60;;
70487;SDS011;57976;48.174;16.370;2022-11-04T08:41:38;39.10;;;18.80;;
70487;SDS011;57976;48.174;16.370;2022-11-04T08:43:45;40.20;;;19.50;;
70487;SDS011;57976;48.174;16.370;2022-11-04T08:45:49;38.90;;;19.40;;
70487;SDS011;57976;48.174;16.370;2022-11-04T08:47:55;38.00;;;18.20;;
70487;SDS011;57976;48.174;16.370;2022-11-04T08:50:07;36.10;;;17.60;;
70487;SDS011;57976;48.174;16.370;2022-11-04T08:52:12;40.80;;;17.50;;
70487;SDS011;57976;48.174;16.370;2022-11-04T08:54:17;37.40;;;17.50;;
70487;SDS011;57976;48.174;16.370;2022-11-04T08:56:22;36.50;;;17.60;;
70487;SDS011;57976;48.174;16.370;2022-11-04T08:58:28;35.30;;;17.00;;
70487;SDS011;57976;48.174;16.370;2022-11-04T09:00:33;36.30;;;17.30;;
70487;SDS011;57976;48.174;16.370;2022-11-04T09:02:37;36.40;;;17.80;;
70487;SDS011;57976;48.174;16.370;2022-11-04T09:04:42;35.80;;;17.30;;
70487;SDS011;57976;48.174;16.370;2022-11-04T09:06:47;36.50;;;17.40;;
70487;SDS011;57976;48.174;16.370;2022-11-04T09:08:52;37.20;;;17.40;;
70487;SDS011;57976;48.174;16.370;2022-11-04T09:10:57;36.90;;;17.20;;
70487;SDS011;57976;48.174;16.370;2022-11-04T09:13:02;36.90;;;17.70;;
70487;SDS011;57976;48.174;16.370;2022-11-04T09:15:07;37.90;;;17.60;;
70487;SDS011;57976;48.174;16.370;2022-11-04T09:17:12;36.60;;;18.30;;
70487;SDS011;57976;48.174;16.370;2022-11-04T09:19:17;34.50;;;16.00;;
70487;SDS011;57976;48.174;16.370;2022-11-04T09:21:22;33.70;;;16.60;;
70487;SDS011;57976;48.174;16.370;2022-11-04T09:23:27;34.30;;;16.20;;
70487;SDS011;57976;48.174;16.370;2022-11-04T09:25:32;32.80;;;15.60;;
70487;SDS011;57976;48.174;16.370;2022-11-04T09:27:37;33.40;;;16.00;;
70487;SDS011;57976;48.174;16.370;2022-11-04T09:29:42;36.70;;;17.50;;
70487;SDS011;57976;48.174;16.370;2022-11-04T09:31:47;36.10;;;16.90;;
70487;SDS011;57976;48.174;16.370;2022-11-04T09:33:52;35.60;;;16.70;;
70487;SDS011;57976;48.174;16.370;2022-11-04T09:35:57;34.30;;;16.30;;
70487;SDS011;57976;48.174;16.370;2022-11-04T09:38:02;36.40;;;17.40;;
70487;SDS011;57976;48.174;16.370;2022-11-04T09:40:08;34.20;;;15.80;;
70487;SDS011;57976;48.174;16.370;2022-11-04T09:44:49;30.90;;;15.30;;
70487;SDS011;57976;48.174;16.370;2022-11-04T09:47:18;31.90;;;15.20;;
70487;SDS011;57976;48.174;16.370;2022-11-04T09:49:25;30.70;;;15.30;;
70487;SDS011;57976;48.174;16.370;2022-11-04T09:51:31;29.50;;;15.10;;
70487;SDS011;57976;48.174;16.370;2022-11-04T09:53:59;30.00;;;14.00;;
70487;SDS011;57976;48.174;16.370;2022-11-04T09:56:05;32.40;;;15.30;;
70487;SDS011;57976;48.174;16.370;2022-11-04T09:58:17;33.50;;;16.00;;
70487;SDS011;57976;48.174;16.370;2022-11-04T10:00:22;34.00;;;18.00;;
70487;SDS011;57976;48.174;16.370;2022-11-04T10:02:31;29.90;;;15.00;;
70487;SDS011;57976;48.174;16.370;2022-11-04T10:04:46;32.10;;;16.30;;
70487;SDS011;57976;48.174;16.370;2022-11-04T10:07:05;30.50;;;15.30;;
70487;SDS011;57976;48.174;16.370;2022-11-04T10:09:19;28.60;;;14.40;;
70487;SDS011;57976;48.174;16.370;2022-11-04T10:11:43;26.30;;;13.90;;
70487;SDS011;57976;48.174;16.370;2022-11-04T10:14:05;28.20;;;13.10;;
70487;SDS011;57976;48.174;16.370;2022-11-04T10:16:27;24.70;;;12.30;;
70487;SDS011;57976;48.174;16.370;2022-11-04T10:18:47;26.30;;;13.00;;
70487;SDS011;57976;48.174;16.370;2022-11-04T10:20:59;26.90;;;13.30;;
70487;SDS011;57976;48.174;16.370;2022-11-04T10:23:16;26.20;;;13.80;;
70487;SDS011;57976;48.174;16.370;2022-11-04T10:25:27;26.40;;;13.20;;
70487;SDS011;57976;48.174;16.370;2022-11-04T10:27:40;25.20;;;13.00;;
70487;SDS011;57976;48.174;16.370;2022-11-04T10:29:47;23.80;;;12.00;;
70487;SDS011;57976;48.174;16.370;2022-11-04T10:31:55;22.30;;;12.00;;
70487;SDS011;57976;48.174;16.370;2022-11-04T10:34:04;25.30;;;12.30;;
70487;SDS011;57976;48.174;16.370;2022-11-04T10:36:13;22.30;;;11.50;;
70487;SDS011;57976;48.174;16.370;2022-11-04T10:38:21;18.80;;;9.40;;
70487;SDS011;57976;48.174;16.370;2022-11-04T10:40:35;23.70;;;15.30;;
70487;SDS011;57976;48.174;16.370;2022-11-04T10:42:41;21.60;;;11.20;;
70487;SDS011;57976;48.174;16.370;2022-11-04T10:44:46;21.50;;;11.40;;
70487;SDS011;57976;48.174;16.370;2022-11-04T10:46:57;20.60;;;10.50;;
70487;SDS011;57976;48.174;16.370;2022-11-04T10:49:18;20.10;;;10.10;;
70487;SDS011;57976;48.174;16.370;2022-11-04T10:51:39;20.50;;;9.50;;
70487;SDS011;57976;48.174;16.370;2022-11-04T10:53:43;16.40;;;8.70;;
70487;SDS011;57976;48.174;16.370;2022-11-04T10:55:50;17.10;;;9.20;;
70487;SDS011;57976;48.174;16.370;2022-11-04T10:58:07;17.10;;;8.50;;
70487;SDS011;57976;48.174;16.370;2022-11-04T11:00:35;16.60;;;8.50;;
70487;SDS011;57976;48.174;16.370;2022-11-04T11:02:46;16.00;;;8.60;;
70487;SDS011;57976;48.174;16.370;2022-11-04T11:04:51;16.50;;;9.50;;
70487;SDS011;57976;48.174;16.370;2022-11-04T11:07:14;16.90;;;8.60;;
70487;SDS011;57976;48.174;16.370;2022-11-04T11:09:20;15.20;;;7.90;;
70487;SDS011;57976;48.174;16.370;2022-11-04T11:11:36;15.40;;;7.90;;
70487;SDS011;57976;48.174;16.370;2022-11-04T11:13:44;16.70;;;8.60;;
70487;SDS011;57976;48.174;16.370;2022-11-04T11:15:49;14.60;;;7.60;;
70487;SDS011;57976;48.174;16.370;2022-11-04T11:18:17;14.40;;;7.90;;
70487;SDS011;57976;48.174;16.370;2022-11-04T11:20:23;13.60;;;7.30;;
70487;SDS011;57976;48.174;16.370;2022-11-04T11:22:33;15.70;;;7.50;;
70487;SDS011;57976;48.174;16.370;2022-11-04T11:24:39;13.60;;;7.30;;
70487;SDS011;57976;48.174;16.370;2022-11-04T11:26:44;11.60;;;6.40;;
70487;SDS011;57976;48.174;16.370;2022-11-04T11:28:50;12.60;;;6.40;;
70487;SDS011;57976;48.174;16.370;2022-11-04T11:31:01;12.60;;;6.40;;
70487;SDS011;57976;48.174;16.370;2022-11-04T11:33:14;21.80;;;7.80;;
70487;SDS011;57976;48.174;16.370;2022-11-04T11:35:22;41.80;;;13.30;;
70487;SDS011;57976;48.174;16.370;2022-11-04T11:37:32;27.50;;;9.40;;
70487;SDS011;57976;48.174;16.370;2022-11-04T11:39:37;15.60;;;7.20;;
70487;SDS011;57976;48.174;16.370;2022-11-04T11:41:50;10.20;;;5.10;;
70487;SDS011;57976;48.174;16.370;2022-11-04T11:43:59;9.90;;;5.20;;
70487;SDS011;57976;48.174;16.370;2022-11-04T11:46:07;11.50;;;5.70;;
70487;SDS011;57976;48.174;16.370;2022-11-04T11:48:27;10.10;;;5.30;;
70487;SDS011;57976;48.174;16.370;2022-11-04T11:50:33;10.90;;;4.80;;
70487;SDS011;57976;48.174;16.370;2022-11-04T11:52:38;10.50;;;4.90;;
70487;SDS011;57976;48.174;16.370;2022-11-04T11:54:44;10.30;;;4.90;;
70487;SDS011;57976;48.174;16.370;2022-11-04T11:56:53;9.80;;;5.10;;
70487;SDS011;57976;48.174;16.370;2022-11-04T11:59:21;10.50;;;5.40;;
70487;SDS011;57976;48.174;16.370;2022-11-04T12:01:49;9.30;;;4.80;;
70487;SDS011;57976;48.174;16.370;2022-11-04T12:04:00;8.90;;;4.40;;
70487;SDS011;57976;48.174;16.370;2022-11-04T12:06:27;10.90;;;4.70;;
70487;SDS011;57976;48.174;16.370;2022-11-04T12:09:07;8.60;;;4.20;;
70487;SDS011;57976;48.174;16.370;2022-11-04T12:11:26;8.80;;;4.30;;
70487;SDS011;57976;48.174;16.370;2022-11-04T12:13:37;9.30;;;5.10;;
70487;SDS011;57976;48.174;16.370;2022-11-04T12:15:51;9.60;;;4.50;;
70487;SDS011;57976;48.174;16.370;2022-11-04T12:18:20;9.40;;;4.50;;
70487;SDS011;57976;48.174;16.370;2022-11-04T12:20:43;10.00;;;3.80;;
70487;SDS011;57976;48.174;16.370;2022-11-04T12:22:57;7.90;;;3.60;;
70487;SDS011;57976;48.174;16.370;2022-11-04T12:25:13;8.20;;;3.80;;